Pagina principală
METAR-TAF:

METAR-TAF

Aeroporturi :

Malakula, Vanuatu

Latitudine: 16-27-26S, longitudine: 167-49-42E, elevație: 2 m

METAR: lipsă

Ora: 13:27 (02:27 UTC)

Prognoză

Raportul a fost făcut în urmă cu 4 ore și 4 de minute, la 22:23 UTC
Prognoză valabilă de la 02 ora 00 UTC la 02 ora 24 UTC
Vânt 6 kt de la Sud-est
Vizibilitate de 10 km sau mai mult
Nori împrăștiați la o înălțime de 2000 picior
Nori fragmentați la o înălțime de 12000 picior

TAF: NVSL 012223Z 0200/0224 13006KT 9999 SCT020 BKN120

Observații și prognoze meteo pentru peste 4.000 de aeroporturi (rapoarte METAR și TAF).

Stațiile disponibile sunt reprezentate pe hartă prin puncte galbene și roșii.

Țineți indicatorul mouse-ului pe punctul dorit pentru a vedea denumirea stației.

Apoi, faceți clic pentru a vedea observațiile și prognozele meteorologice.

Pentru a schimba harta: Pentru mărire, faceți clic pe butoanele verzi cu cruce neagră; pentru micșorare, pe butonul verde cu o liniuță; pentru hărți învecinate, pe săgețile verzi.


METAR-TAF: